Time;durP1;ratioP1;P1;durP2;ratioP2;P2;SDS_P1;SDS_P2;PMS_P1;PMS_P2;Temp;Humidity;BMP_temperature;BMP_pressure;BME280_temperature;BME280_humidity;BME280_pressure;Samples;Min_cycle;Max_cycle;Signal;HPM_P1;HPM_P2
2024/03/05 06:00:32;;;;;;;80.60;34.35;;;8.20;99.70;;;;;;4961331;23;20034;31
2024/03/05 06:02:33;;;;;;;80.60;34.15;;;8.20;99.90;;;;;;4019115;29;20664;-78
2024/03/05 06:04:35;;;;;;;77.35;34.95;;;8.20;99.90;;;;;;4022354;29;20128;-78
2024/03/05 06:06:37;;;;;;;79.05;34.20;;;8.20;99.90;;;;;;4022184;29;20050;-79
2024/03/05 06:08:38;;;;;;;73.20;32.65;;;8.30;99.80;;;;;;4022435;29;20054;-78
2024/03/05 06:10:41;;;;;;;73.45;33.72;;;8.40;99.70;;;;;;4022168;29;20465;-79
2024/03/05 06:12:43;;;;;;;79.80;35.17;;;8.40;99.60;;;;;;4025192;29;20057;-77
2024/03/05 06:14:45;;;;;;;83.88;35.90;;;8.40;99.50;;;;;;4024935;29;20053;-78
2024/03/05 06:16:48;;;;;;;77.80;34.47;;;8.50;99.40;;;;;;4025358;29;20084;-79
2024/03/05 06:18:49;;;;;;;74.43;33.75;;;8.50;99.50;;;;;;4025132;29;20046;-78
2024/03/05 06:20:51;;;;;;;73.97;33.72;;;8.50;99.40;;;;;;4025115;29;20121;-77
2024/03/05 06:22:52;;;;;;;78.35;34.63;;;8.50;99.50;;;;;;4025032;29;20117;-79
2024/03/05 06:24:54;;;;;;;85.03;36.90;;;8.50;99.70;;;;;;4025334;29;20050;-77
2024/03/05 06:26:56;;;;;;;77.97;34.92;;;8.50;99.70;;;;;;4025039;29;20057;-76
2024/03/05 06:28:57;;;;;;;79.78;35.63;;;8.50;99.60;;;;;;4025145;29;20492;-78
2024/03/05 06:30:59;;;;;;;79.03;34.95;;;8.40;99.80;;;;;;4025446;29;20053;-78
2024/03/05 06:33:06;;;;;;;72.63;32.65;;;8.40;99.80;;;;;;4025875;29;20077;-78
2024/03/05 06:35:10;;;;;;;82.15;32.90;;;8.40;99.80;;;;;;4024890;29;20054;-78
2024/03/05 06:37:12;;;;;;;76.18;33.75;;;8.40;99.90;;;;;;4025111;29;20468;-79
2024/03/05 06:39:19;;;;;;;84.20;35.67;;;8.30;99.90;;;;;;4025209;29;20057;-78
2024/03/05 06:41:25;;;;;;;82.95;33.38;;;8.30;99.90;;;;;;4025131;29;20141;-77
2024/03/05 06:43:32;;;;;;;83.88;33.60;;;8.30;99.90;;;;;;4024818;29;20049;-79
2024/03/05 06:45:34;;;;;;;78.75;32.35;;;8.20;99.90;;;;;;4024818;29;20491;-79
2024/03/05 06:47:39;;;;;;;84.50;35.20;;;8.20;99.90;;;;;;4024851;29;20062;-77
2024/03/05 06:49:43;;;;;;;86.82;34.20;;;8.10;99.90;;;;;;4024918;29;20053;-77
2024/03/05 06:51:53;;;;;;;82.47;34.05;;;8.20;99.90;;;;;;4024925;29;20061;-79
2024/03/05 06:58:31;;;;;;;84.38;36.20;;;8.30;99.90;;;;;;4024576;29;20097;-79
2024/03/05 07:00:34;;;;;;;92.47;36.80;;;8.30;99.90;;;;;;4024481;29;20091;-80
2024/03/05 07:02:36;;;;;;;86.43;37.45;;;8.30;99.90;;;;;;4025144;29;20152;-78
2024/03/05 07:04:40;;;;;;;88.82;37.50;;;8.30;99.90;;;;;;4025154;29;20050;-80
2024/03/05 07:06:44;;;;;;;84.53;37.13;;;8.30;99.90;;;;;;4025369;29;20510;-79
2024/03/05 07:08:48;;;;;;;82.00;36.42;;;8.30;99.90;;;;;;4025010;29;20046;-78
2024/03/05 07:10:50;;;;;;;85.43;36.47;;;8.40;99.90;;;;;;4024808;29;20510;-79
2024/03/05 07:12:52;;;;;;;80.22;35.45;;;8.40;99.90;;;;;;4025154;29;20080;-76
2024/03/05 07:14:54;;;;;;;77.97;34.92;;;8.50;99.90;;;;;;4024802;29;20457;-77
2024/03/05 07:16:56;;;;;;;76.95;35.38;;;8.50;99.90;;;;;;4024300;29;20052;-80
2024/03/05 07:18:59;;;;;;;79.72;34.33;;;8.50;99.90;;;;;;4024118;29;20050;-79
2024/03/05 07:21:01;;;;;;;81.47;34.42;;;8.60;99.90;;;;;;4023935;29;20061;-81
2024/03/05 07:23:05;;;;;;;76.28;34.97;;;8.60;99.90;;;;;;4023049;29;20121;-79
2024/03/05 07:25:08;;;;;;;78.60;34.08;;;8.60;99.90;;;;;;4024425;29;20464;-79
2024/03/05 07:27:11;;;;;;;76.10;34.03;;;8.60;99.90;;;;;;4024092;29;20310;-79
2024/03/05 07:29:13;;;;;;;83.55;34.10;;;8.70;99.80;;;;;;4024518;29;20049;-78
2024/03/05 07:31:16;;;;;;;74.00;32.92;;;8.60;99.70;;;;;;4023929;29;20057;-78
2024/03/05 07:33:18;;;;;;;80.90;35.80;;;8.60;99.90;;;;;;4024118;29;20092;-78
2024/03/05 07:35:20;;;;;;;83.30;35.50;;;8.60;99.90;;;;;;4024082;29;20049;-75
2024/03/05 07:37:22;;;;;;;82.60;35.67;;;8.60;99.90;;;;;;4023844;29;20049;-78
2024/03/05 07:39:24;;;;;;;86.88;35.08;;;8.60;99.80;;;;;;4021101;29;20094;-77
2024/03/05 07:41:27;;;;;;;74.07;33.42;;;8.70;99.80;;;;;;4021926;29;20140;-80
2024/03/05 07:43:29;;;;;;;83.28;35.35;;;8.60;99.90;;;;;;4021953;29;20057;-80
2024/03/05 07:45:31;;;;;;;77.03;34.85;;;8.60;99.90;;;;;;4022022;29;20086;-79
2024/03/05 07:47:33;;;;;;;80.65;33.45;;;8.70;99.90;;;;;;4022003;29;20122;-79
2024/03/05 07:49:34;;;;;;;79.72;35.28;;;8.70;99.90;;;;;;4021591;29;20118;-78
2024/03/05 07:51:37;;;;;;;78.82;35.40;;;8.70;99.90;;;;;;4022200;29;20053;-78
2024/03/05 07:53:38;;;;;;;83.65;35.67;;;8.70;99.90;;;;;;4022103;29;20056;-79
2024/03/05 07:55:41;;;;;;;88.32;36.47;;;8.70;99.80;;;;;;4021232;29;20882;-78
2024/03/05 07:57:44;;;;;;;94.38;37.67;;;8.50;99.90;;;;;;4021711;29;20101;-79
2024/03/05 07:59:45;;;;;;;85.82;36.42;;;8.40;99.90;;;;;;4021889;29;20453;-79
2024/03/05 08:01:46;;;;;;;90.78;36.65;;;8.40;99.90;;;;;;4021450;29;20058;-78
2024/03/05 08:03:48;;;;;;;80.28;34.38;;;8.40;99.90;;;;;;4021561;29;20452;-78
2024/03/05 08:05:50;;;;;;;87.38;35.97;;;8.40;99.90;;;;;;4021264;29;20061;-79
2024/03/05 08:07:54;;;;;;;87.40;36.05;;;8.50;99.90;;;;;;4021195;29;20060;-78
2024/03/05 08:09:55;;;;;;;86.50;37.10;;;8.50;99.90;;;;;;4021320;29;20053;-80
2024/03/05 08:11:59;;;;;;;77.70;34.47;;;8.50;99.90;;;;;;4021347;29;20105;-80
2024/03/05 08:14:03;;;;;;;84.30;34.83;;;8.50;99.90;;;;;;4021076;29;20574;-78
2024/03/05 08:16:08;;;;;;;85.18;34.88;;;8.50;99.90;;;;;;4021372;29;20528;-78
2024/03/05 08:18:12;;;;;;;79.47;34.15;;;8.60;99.90;;;;;;4021668;29;20128;-79
2024/03/05 08:20:15;;;;;;;78.82;35.33;;;8.60;99.90;;;;;;4021369;29;20144;-79
2024/03/05 08:22:17;;;;;;;79.72;34.60;;;8.60;99.90;;;;;;4021238;29;20053;-78
2024/03/05 08:24:18;;;;;;;78.00;34.15;;;8.60;99.90;;;;;;4021509;29;20054;-78
2024/03/05 08:26:22;;;;;;;78.32;33.75;;;8.60;99.90;;;;;;4021237;29;20500;-79
2024/03/05 08:28:25;;;;;;;81.22;34.97;;;8.70;99.90;;;;;;4021402;29;20053;-79
2024/03/05 08:30:31;;;;;;;77.60;33.00;;;8.70;99.90;;;;;;4021076;29;20492;-76
2024/03/05 08:32:33;;;;;;;77.60;33.97;;;8.80;99.90;;;;;;4021216;29;20145;-77
2024/03/05 08:34:36;;;;;;;73.93;33.10;;;8.80;99.90;;;;;;4020865;29;20053;-76
2024/03/05 08:36:39;;;;;;;82.60;35.50;;;8.90;99.90;;;;;;4021517;29;20101;-77
2024/03/05 08:38:41;;;;;;;78.50;33.25;;;8.90;99.90;;;;;;4020663;29;20122;-77
2024/03/05 08:40:43;;;;;;;75.93;34.15;;;8.90;99.80;;;;;;4021039;29;20050;-76
2024/03/05 08:42:45;;;;;;;73.15;32.33;;;8.90;99.90;;;;;;4021131;29;20456;-78
2024/03/05 08:44:48;;;;;;;85.05;35.55;;;8.80;99.80;;;;;;4021098;29;20053;-78
2024/03/05 08:46:50;;;;;;;74.00;33.25;;;8.80;99.90;;;;;;4020669;29;20057;-78
2024/03/05 08:48:52;;;;;;;77.00;33.22;;;8.90;99.90;;;;;;4020903;29;20101;-79
2024/03/05 08:50:54;;;;;;;71.13;31.75;;;8.90;99.90;;;;;;4020584;29;20140;-78
2024/03/05 08:52:57;;;;;;;66.93;31.30;;;8.90;99.80;;;;;;4021211;29;20479;-78
2024/03/05 08:54:58;;;;;;;60.28;27.58;;;8.90;99.60;;;;;;4020987;29;20435;-78
2024/03/05 08:57:00;;;;;;;65.75;29.90;;;8.90;99.10;;;;;;4018995;29;20056;-79
2024/03/05 08:59:01;;;;;;;61.00;27.38;;;8.90;99.40;;;;;;4021161;29;20057;-80
2024/03/05 09:01:06;;;;;;;60.47;26.80;;;8.80;99.30;;;;;;4020558;29;20197;-80
2024/03/05 09:03:09;;;;;;;59.50;26.35;;;8.80;99.30;;;;;;4020717;29;20061;-79
2024/03/05 09:05:11;;;;;;;61.63;28.13;;;8.80;99.50;;;;;;4020778;29;20065;-78
2024/03/05 09:07:13;;;;;;;52.53;24.77;;;8.70;99.60;;;;;;4020875;29;20113;-78
2024/03/05 09:09:15;;;;;;;54.85;25.52;;;8.70;99.40;;;;;;4020901;29;20045;-78
2024/03/05 09:11:16;;;;;;;57.47;25.42;;;8.80;99.20;;;;;;4020879;29;20412;-79
2024/03/05 09:13:18;;;;;;;47.00;23.10;;;8.80;99.50;;;;;;4020544;29;20058;-78
2024/03/05 09:15:20;;;;;;;50.03;23.45;;;8.70;99.10;;;;;;4020693;29;20113;-79
2024/03/05 09:17:23;;;;;;;49.63;23.85;;;8.70;99.60;;;;;;4020964;29;20117;-77
2024/03/05 09:19:25;;;;;;;47.63;23.20;;;8.70;99.30;;;;;;4023582;29;20060;-78
2024/03/05 09:21:28;;;;;;;42.60;21.92;;;8.80;99.10;;;;;;4025275;29;20053;-76
2024/03/05 09:23:30;;;;;;;41.83;21.52;;;8.80;98.90;;;;;;4023415;29;20061;-78
2024/03/05 09:25:32;;;;;;;42.28;20.90;;;8.80;98.70;;;;;;4020837;29;20407;-80
2024/03/05 09:27:35;;;;;;;40.58;20.60;;;8.70;98.60;;;;;;4020639;29;20392;-78
2024/03/05 09:29:38;;;;;;;41.95;21.23;;;8.60;98.60;;;;;;4020643;29;20063;-78
2024/03/05 09:31:40;;;;;;;36.95;18.80;;;8.60;98.90;;;;;;4020385;29;20109;-77
2024/03/05 09:33:43;;;;;;;41.60;19.98;;;8.50;98.80;;;;;;4020287;29;20081;-78
2024/03/05 09:35:45;;;;;;;39.55;19.85;;;8.60;99.00;;;;;;4020801;29;20141;-78
2024/03/05 09:37:47;;;;;;;36.95;18.58;;;8.60;98.70;;;;;;4020160;29;20065;-78
2024/03/05 09:39:50;;;;;;;37.42;18.85;;;8.60;98.40;;;;;;4020152;29;20053;-78
2024/03/05 09:41:54;;;;;;;34.50;18.33;;;8.60;98.80;;;;;;4020289;29;20045;-78
2024/03/05 09:43:56;;;;;;;36.60;18.77;;;8.60;98.80;;;;;;4020110;29;20435;-78
2024/03/05 09:46:06;;;;;;;34.42;18.27;;;8.60;98.90;;;;;;4019454;29;20053;-76
2024/03/05 09:48:09;;;;;;;35.22;18.10;;;8.50;98.90;;;;;;4020276;29;20053;-78
2024/03/05 09:50:14;;;;;;;34.10;17.90;;;8.50;98.70;;;;;;4019979;29;20056;-78
2024/03/05 09:52:18;;;;;;;34.33;18.10;;;8.60;98.90;;;;;;4020353;29;20472;-78
2024/03/05 09:54:20;;;;;;;28.13;15.63;;;8.60;98.70;;;;;;4020212;29;20094;-77
2024/03/05 09:56:22;;;;;;;28.67;15.57;;;8.50;98.20;;;;;;4018221;29;20057;-78
2024/03/05 09:58:34;;;;;;;28.65;15.05;;;8.50;98.20;;;;;;4020096;29;20053;-78
2024/03/05 10:00:38;;;;;;;28.98;15.13;;;8.50;98.20;;;;;;4020345;29;20061;-78
2024/03/05 10:02:40;;;;;;;27.98;15.55;;;8.60;98.50;;;;;;4019795;29;20531;-79
2024/03/05 10:04:43;;;;;;;29.77;15.75;;;8.60;98.10;;;;;;4020349;29;20392;-77
2024/03/05 10:06:47;;;;;;;25.92;14.60;;;8.70;98.20;;;;;;4020315;29;20080;-77
2024/03/05 10:08:49;;;;;;;24.30;13.40;;;8.70;97.90;;;;;;4020548;29;20054;-74
2024/03/05 10:11:00;;;;;;;26.70;14.52;;;8.70;97.60;;;;;;4020044;29;20054;-76
2024/03/05 10:13:03;;;;;;;24.63;12.95;;;8.80;97.70;;;;;;4020299;29;20085;-78
2024/03/05 10:15:17;;;;;;;23.80;13.20;;;8.90;97.00;;;;;;4019864;29;20137;-78
2024/03/05 10:17:19;;;;;;;23.65;13.20;;;8.80;97.10;;;;;;4020728;29;20064;-79
2024/03/05 10:19:20;;;;;;;24.73;13.85;;;8.80;97.50;;;;;;4020588;29;20049;-76
2024/03/05 10:21:25;;;;;;;22.17;12.57;;;8.90;97.70;;;;;;4027003;29;20065;-77
2024/03/05 10:23:27;;;;;;;21.20;12.77;;;8.90;96.80;;;;;;4030922;29;20042;-80
2024/03/05 10:25:30;;;;;;;21.77;12.73;;;8.90;96.80;;;;;;4032905;29;20140;-80
2024/03/05 10:27:33;;;;;;;20.98;12.45;;;8.90;96.70;;;;;;4031763;29;20129;-78
2024/03/05 10:29:37;;;;;;;20.23;11.75;;;9.00;96.70;;;;;;4023422;29;20054;-79
2024/03/05 10:31:42;;;;;;;20.52;12.60;;;8.90;96.10;;;;;;4020719;29;20058;-79
2024/03/05 10:33:43;;;;;;;18.92;11.90;;;8.90;96.50;;;;;;4020274;29;20053;-80
2024/03/05 10:35:51;;;;;;;19.42;11.98;;;8.80;96.50;;;;;;4019805;29;20085;-79
2024/03/05 10:38:03;;;;;;;18.70;11.18;;;8.90;96.60;;;;;;4019387;29;20137;-79
2024/03/05 10:40:08;;;;;;;18.70;11.23;;;8.90;96.20;;;;;;4019896;29;20056;-77
2024/03/05 10:42:12;;;;;;;19.13;11.20;;;8.80;96.20;;;;;;4019926;29;20057;-78
2024/03/05 10:44:16;;;;;;;19.25;11.32;;;8.70;96.30;;;;;;4019635;29;20144;-78
2024/03/05 10:46:20;;;;;;;22.35;12.07;;;8.80;96.20;;;;;;4020049;29;20110;-78
2024/03/05 10:48:24;;;;;;;19.85;11.02;;;8.90;96.10;;;;;;4019848;29;20065;-78
2024/03/05 10:50:27;;;;;;;18.15;10.30;;;8.90;96.10;;;;;;4019463;29;20061;-79
2024/03/05 10:52:30;;;;;;;17.05;10.63;;;8.80;95.80;;;;;;4019834;29;20479;-79
2024/03/05 10:54:33;;;;;;;18.17;9.70;;;8.80;95.80;;;;;;4019889;29;20061;-78
2024/03/05 10:56:37;;;;;;;15.95;10.02;;;8.80;95.80;;;;;;4017970;29;20054;-79
2024/03/05 11:00:58;;;;;;;14.00;8.43;;;8.90;95.30;;;;;;4022235;29;20064;-77
2024/03/05 11:03:03;;;;;;;15.90;9.13;;;8.80;94.90;;;;;;4022176;29;20476;-75
2024/03/05 11:05:07;;;;;;;15.65;9.32;;;8.70;95.20;;;;;;4022529;29;20121;-78
2024/03/05 11:07:10;;;;;;;15.90;9.40;;;8.70;95.50;;;;;;4022261;29;20128;-80
2024/03/05 11:09:11;;;;;;;15.68;9.48;;;8.80;95.60;;;;;;4022540;29;20092;-79
2024/03/05 11:11:18;;;;;;;16.42;9.13;;;8.80;95.40;;;;;;4022390;29;20137;-77
2024/03/05 11:13:22;;;;;;;15.02;8.75;;;8.80;95.10;;;;;;4022389;29;20090;-81
2024/03/05 11:15:25;;;;;;;11.95;7.03;;;8.80;95.50;;;;;;4021878;29;20065;-78
2024/03/05 11:17:26;;;;;;;12.05;6.70;;;8.80;95.20;;;;;;4022225;29;20053;-78
2024/03/05 11:19:28;;;;;;;9.48;5.88;;;8.80;95.30;;;;;;4022283;29;20045;-79
2024/03/05 11:21:31;;;;;;;9.57;5.75;;;8.90;94.90;;;;;;4022025;29;20414;-78
2024/03/05 11:23:34;;;;;;;10.98;6.00;;;8.80;94.80;;;;;;4022166;29;20054;-79
2024/03/05 11:25:36;;;;;;;7.95;4.60;;;8.80;95.00;;;;;;4021663;29;20396;-80
2024/03/05 11:27:38;;;;;;;8.50;4.82;;;8.70;94.60;;;;;;4022176;29;20061;-77
2024/03/05 11:29:42;;;;;;;6.78;4.07;;;8.60;95.00;;;;;;4021892;29;20449;-79
2024/03/05 11:31:47;;;;;;;6.03;3.58;;;8.60;94.90;;;;;;4022352;29;20624;-78
2024/03/05 11:34:00;;;;;;;6.28;3.65;;;8.70;94.90;;;;;;4022184;29;20057;-79
2024/03/05 11:36:02;;;;;;;5.68;3.33;;;8.70;95.00;;;;;;4022299;29;20349;-78
2024/03/05 11:38:04;;;;;;;4.75;2.90;;;8.80;94.80;;;;;;4021906;29;20133;-78
2024/03/05 11:40:11;;;;;;;5.25;2.80;;;8.80;94.50;;;;;;4022196;29;20137;-79
2024/03/05 11:42:18;;;;;;;4.45;2.30;;;8.90;94.60;;;;;;4022139;29;20075;-79
2024/03/05 11:44:55;;;;;;;4.53;2.10;;;8.90;94.60;;;;;;4021904;29;20061;-79
2024/03/05 11:46:55;;;;;;;4.20;1.90;;;8.80;94.50;;;;;;4021736;29;20065;-78
2024/03/05 11:49:00;;;;;;;3.38;1.80;;;8.90;94.40;;;;;;4021665;29;20055;-79
2024/03/05 11:51:03;;;;;;;3.00;1.63;;;8.90;94.50;;;;;;4021571;29;20125;-80
2024/03/05 11:53:06;;;;;;;3.40;1.60;;;8.80;94.30;;;;;;4021765;29;20534;-78
2024/03/05 11:55:09;;;;;;;3.40;1.70;;;8.90;94.60;;;;;;4021745;29;20049;-78
2024/03/05 11:57:11;;;;;;;2.90;1.45;;;8.90;94.50;;;;;;4019493;29;20053;-79
2024/03/05 11:59:13;;;;;;;4.22;1.50;;;8.90;94.70;;;;;;4021688;29;20053;-79
2024/03/05 12:01:17;;;;;;;3.35;1.50;;;8.80;94.50;;;;;;4026107;29;20060;-79
2024/03/05 12:03:20;;;;;;;3.60;1.33;;;8.80;94.50;;;;;;4036909;29;20116;-78
2024/03/05 12:05:22;;;;;;;3.25;1.58;;;8.80;94.70;;;;;;4037006;29;20476;-79
2024/03/05 12:07:24;;;;;;;3.60;1.48;;;8.80;95.00;;;;;;4037094;29;20056;-80
2024/03/05 12:09:25;;;;;;;3.17;1.40;;;8.80;95.00;;;;;;4036309;29;20060;-79
2024/03/05 12:11:27;;;;;;;2.67;1.30;;;8.90;94.90;;;;;;4036932;29;20780;-79
2024/03/05 12:13:31;;;;;;;2.80;1.30;;;8.90;94.80;;;;;;4021888;29;20062;-79
2024/03/05 12:15:39;;;;;;;3.15;1.08;;;8.80;94.60;;;;;;4028686;29;20408;-80
2024/03/05 12:17:43;;;;;;;3.00;1.40;;;8.70;94.50;;;;;;4036584;29;20053;-80
2024/03/05 12:19:46;;;;;;;2.88;1.45;;;8.80;95.30;;;;;;4036765;29;20552;-79
2024/03/05 12:21:47;;;;;;;2.72;1.33;;;8.80;94.60;;;;;;4036483;29;20061;-79
2024/03/05 12:23:50;;;;;;;3.35;1.40;;;8.90;94.70;;;;;;4036245;29;20584;-79
2024/03/05 12:25:53;;;;;;;2.85;1.30;;;8.80;94.80;;;;;;4036048;29;20053;-78
2024/03/05 12:27:54;;;;;;;2.55;1.10;;;8.90;94.70;;;;;;4028649;29;20449;-79
2024/03/05 12:30:01;;;;;;;2.65;1.35;;;8.80;94.60;;;;;;4020961;29;20165;-79
2024/03/05 12:32:04;;;;;;;3.00;1.40;;;8.90;94.60;;;;;;4021200;29;20049;-77
2024/03/05 12:34:07;;;;;;;3.17;1.38;;;8.90;94.90;;;;;;4021033;29;20053;-78
2024/03/05 12:36:13;;;;;;;2.72;1.40;;;8.80;94.10;;;;;;4021240;29;20057;-80
2024/03/05 12:38:15;;;;;;;2.88;1.30;;;8.80;94.40;;;;;;4020772;29;20053;-80
2024/03/05 12:40:18;;;;;;;2.88;1.40;;;8.80;94.50;;;;;;4020970;29;20105;-78
2024/03/05 12:42:23;;;;;;;2.42;1.20;;;8.80;94.40;;;;;;4020720;29;20056;-80
2024/03/05 12:44:24;;;;;;;2.70;1.20;;;8.80;94.50;;;;;;4021034;29;20530;-77
2024/03/05 12:46:26;;;;;;;2.53;1.13;;;8.80;94.60;;;;;;4020631;29;20045;-78
2024/03/05 12:48:31;;;;;;;3.17;1.40;;;8.90;94.60;;;;;;4021919;29;20137;-77
2024/03/05 12:50:35;;;;;;;2.28;1.10;;;8.90;94.50;;;;;;4020530;29;20049;-77
2024/03/05 12:52:37;;;;;;;3.40;1.23;;;8.90;94.40;;;;;;4020607;29;20069;-78
2024/03/05 12:54:39;;;;;;;2.88;1.27;;;8.80;94.60;;;;;;4020838;29;20488;-79
2024/03/05 12:56:42;;;;;;;3.00;1.45;;;8.70;94.90;;;;;;4019033;29;20049;-77
2024/03/05 12:58:44;;;;;;;3.13;1.38;;;8.60;95.00;;;;;;4020655;29;20248;-75
2024/03/05 13:00:46;;;;;;;3.40;1.65;;;8.70;95.10;;;;;;4020530;29;20121;-77
2024/03/05 13:02:48;;;;;;;3.65;1.30;;;8.60;95.40;;;;;;4020404;29;20397;-75
2024/03/05 13:04:50;;;;;;;3.17;1.40;;;8.80;95.70;;;;;;4020482;29;20060;-77
2024/03/05 13:06:54;;;;;;;3.20;1.33;;;8.80;95.40;;;;;;4020762;29;20768;-78
2024/03/05 13:08:55;;;;;;;2.92;1.50;;;8.70;95.20;;;;;;4020510;29;20421;-78
2024/03/05 13:10:57;;;;;;;3.33;1.45;;;8.70;95.30;;;;;;4020318;29;20109;-79
2024/03/05 13:12:59;;;;;;;2.85;1.33;;;8.80;95.40;;;;;;4020300;29;20053;-79
2024/03/05 13:15:00;;;;;;;3.30;1.30;;;8.90;95.00;;;;;;4019961;29;20067;-79
2024/03/05 13:17:03;;;;;;;3.45;1.35;;;9.00;95.00;;;;;;4020325;29;20058;-79
2024/03/05 13:19:04;;;;;;;3.30;1.30;;;9.00;94.90;;;;;;4020384;29;20172;-79
2024/03/05 13:21:06;;;;;;;3.53;1.48;;;9.10;94.80;;;;;;4019459;29;20115;-80
2024/03/05 13:23:09;;;;;;;3.05;1.50;;;9.10;95.10;;;;;;4020146;29;20125;-80
2024/03/05 13:25:15;;;;;;;3.08;1.50;;;9.20;95.40;;;;;;4019994;29;20057;-79
2024/03/05 13:27:17;;;;;;;3.00;1.50;;;9.10;95.10;;;;;;4020026;29;20376;-79
2024/03/05 13:29:19;;;;;;;3.30;1.55;;;9.20;94.90;;;;;;4020681;29;20467;-80
2024/03/05 13:31:20;;;;;;;3.22;1.60;;;9.20;95.00;;;;;;4020423;29;20392;-79
2024/03/05 13:33:25;;;;;;;5.55;1.90;;;9.30;95.00;;;;;;4019918;29;20057;-79
2024/03/05 13:35:26;;;;;;;3.83;1.98;;;9.30;94.80;;;;;;4005107;29;20050;-80
2024/03/05 13:37:28;;;;;;;3.83;2.00;;;9.30;94.80;;;;;;4004853;29;20153;-79
2024/03/05 13:39:31;;;;;;;6.00;2.55;;;9.30;95.00;;;;;;4004714;29;20507;-79
2024/03/05 13:41:32;;;;;;;4.13;1.90;;;9.30;95.20;;;;;;4004851;29;20077;-77
2024/03/05 13:43:35;;;;;;;5.00;2.22;;;9.40;95.70;;;;;;4004715;29;20054;-79
2024/03/05 13:45:38;;;;;;;4.97;2.95;;;9.40;95.60;;;;;;4004793;29;20144;-81
2024/03/05 13:47:40;;;;;;;5.40;3.05;;;9.40;95.40;;;;;;4004844;29;20050;-81
2024/03/05 13:49:42;;;;;;;4.95;2.60;;;9.40;95.30;;;;;;4004590;29;20058;-80
2024/03/05 13:51:43;;;;;;;4.78;2.55;;;9.40;95.50;;;;;;4006001;29;20058;-77
2024/03/05 13:53:45;;;;;;;4.30;2.47;;;9.50;95.40;;;;;;4020097;29;20053;-77
2024/03/05 13:55:54;;;;;;;5.50;3.10;;;9.50;95.30;;;;;;4018089;29;20141;-78
2024/03/05 13:57:58;;;;;;;6.00;2.58;;;9.50;95.70;;;;;;4019019;29;20536;-78
2024/03/05 14:00:00;;;;;;;4.55;2.70;;;9.50;95.70;;;;;;4020036;29;20045;-80
2024/03/05 14:02:02;;;;;;;5.88;3.22;;;9.50;95.90;;;;;;4018074;29;20491;-79
2024/03/05 14:04:09;;;;;;;4.97;2.85;;;9.50;96.00;;;;;;4018916;29;20056;-80
2024/03/05 14:06:11;;;;;;;5.13;3.13;;;9.50;96.20;;;;;;4019816;29;20057;-78
2024/03/05 14:08:13;;;;;;;6.03;2.97;;;9.50;96.20;;;;;;4018418;29;20062;-79
2024/03/05 14:10:15;;;;;;;5.70;3.17;;;9.50;96.10;;;;;;4019854;29;20133;-77
2024/03/05 14:12:19;;;;;;;5.50;3.30;;;9.50;96.00;;;;;;4020186;29;20152;-78
2024/03/05 14:14:20;;;;;;;5.75;3.13;;;9.50;96.00;;;;;;4019674;29;20082;-77
2024/03/05 14:16:21;;;;;;;5.20;3.00;;;9.40;95.80;;;;;;4019934;29;20094;-77
2024/03/05 14:18:23;;;;;;;5.55;2.85;;;9.40;95.90;;;;;;4020015;29;20515;-78
2024/03/05 14:20:27;;;;;;;5.32;3.10;;;9.40;95.80;;;;;;4019811;29;20189;-79
2024/03/05 14:22:28;;;;;;;6.32;3.45;;;9.40;95.90;;;;;;4020029;29;20058;-78
2024/03/05 14:24:30;;;;;;;5.70;3.65;;;9.30;95.70;;;;;;4020051;29;20097;-78
2024/03/05 14:26:32;;;;;;;8.10;4.22;;;9.30;95.90;;;;;;4019948;29;20552;-81
2024/03/05 14:28:36;;;;;;;8.23;4.03;;;9.40;96.00;;;;;;4019884;29;20062;-82
2024/03/05 14:30:39;;;;;;;9.18;3.90;;;9.30;96.00;;;;;;4019868;29;20061;-81
2024/03/05 14:32:42;;;;;;;7.32;4.00;;;9.30;96.30;;;;;;4020669;29;20049;-79
2024/03/05 14:34:44;;;;;;;6.65;3.78;;;9.30;96.40;;;;;;4022465;29;20504;-78
2024/03/05 14:36:46;;;;;;;7.43;4.05;;;9.40;96.50;;;;;;4022629;29;20053;-81
2024/03/05 14:38:48;;;;;;;6.63;3.85;;;9.40;96.40;;;;;;4022650;29;20480;-80
2024/03/05 14:40:54;;;;;;;7.80;3.72;;;9.40;96.40;;;;;;4022642;29;20053;-80
2024/03/05 14:42:55;;;;;;;7.72;3.83;;;9.40;96.40;;;;;;4023085;29;20464;-81
2024/03/05 14:44:59;;;;;;;7.05;3.80;;;9.50;96.20;;;;;;4022831;29;20049;-79
2024/03/05 14:47:01;;;;;;;7.05;3.63;;;9.50;96.00;;;;;;4022851;29;20440;-78
2024/03/05 14:49:04;;;;;;;6.95;3.80;;;9.60;95.90;;;;;;4022688;29;20057;-79
2024/03/05 14:51:06;;;;;;;6.15;3.50;;;9.60;95.90;;;;;;4022673;29;20088;-78
2024/03/05 14:53:07;;;;;;;12.40;8.10;;;9.50;95.90;;;;;;4023176;29;20489;-79
2024/03/05 14:55:12;;;;;;;26.85;17.02;;;9.50;96.10;;;;;;4024704;29;20053;-79
2024/03/05 14:57:14;;;;;;;17.73;11.13;;;9.50;96.10;;;;;;4023478;29;20064;-80
2024/03/05 14:59:16;;;;;;;11.40;6.88;;;9.60;96.10;;;;;;4026743;29;20088;-81
2024/03/05 15:01:19;;;;;;;15.80;9.75;;;9.60;96.20;;;;;;4031317;29;20064;-81
2024/03/05 15:03:21;;;;;;;8.45;4.40;;;9.60;96.20;;;;;;4042300;29;20056;-80
2024/03/05 15:05:24;;;;;;;9.95;6.53;;;9.60;96.10;;;;;;4044806;29;20084;-80
2024/03/05 15:07:26;;;;;;;9.30;5.40;;;9.60;96.10;;;;;;4039478;29;20056;-79
2024/03/05 15:11:47;;;;;;;7.57;4.47;;;9.50;96.30;;;;;;4020274;29;20534;-79
2024/03/05 15:13:48;;;;;;;7.22;4.15;;;9.50;96.30;;;;;;4022040;29;20084;-76
2024/03/05 15:15:51;;;;;;;8.18;4.28;;;9.50;96.20;;;;;;4031917;29;20109;-79
2024/03/05 15:17:54;;;;;;;6.53;4.13;;;9.50;95.80;;;;;;4028500;29;20086;-78
2024/03/05 15:19:56;;;;;;;7.10;4.22;;;9.50;95.70;;;;;;4022732;29;20360;-76
2024/03/05 15:21:58;;;;;;;7.35;4.20;;;9.50;95.90;;;;;;4022491;29;20053;-77
2024/03/05 15:24:00;;;;;;;7.05;3.88;;;9.50;96.00;;;;;;4023333;29;20113;-79
2024/03/05 15:26:02;;;;;;;7.68;3.90;;;9.50;96.00;;;;;;4030521;29;20384;-78
2024/03/05 15:28:04;;;;;;;5.97;3.90;;;9.50;95.90;;;;;;4028369;29;20057;-79
2024/03/05 15:30:12;;;;;;;6.35;3.95;;;9.50;96.00;;;;;;4022571;29;20185;-79
2024/03/05 15:32:14;;;;;;;6.53;4.18;;;9.50;96.00;;;;;;4022310;29;20054;-77
2024/03/05 15:34:17;;;;;;;6.72;3.83;;;9.50;96.20;;;;;;4022038;29;20056;-77
2024/03/05 15:36:19;;;;;;;5.53;3.35;;;9.50;96.20;;;;;;4022045;29;20503;-77
2024/03/05 15:38:21;;;;;;;7.45;3.97;;;9.40;95.90;;;;;;4021636;29;20121;-78
2024/03/05 15:40:23;;;;;;;6.35;3.20;;;9.40;95.80;;;;;;4029479;29;20101;-77
2024/03/05 15:42:25;;;;;;;6.60;3.70;;;9.40;95.60;;;;;;4028672;29;20105;-76
2024/03/05 15:44:28;;;;;;;5.90;3.60;;;9.30;96.30;;;;;;4020865;29;20077;-77
2024/03/05 15:46:30;;;;;;;6.60;3.50;;;9.30;96.50;;;;;;4021780;29;20456;-78
2024/03/05 15:48:32;;;;;;;5.95;3.50;;;9.30;96.80;;;;;;4022252;29;20534;-76
2024/03/05 15:50:35;;;;;;;6.25;3.58;;;9.30;96.40;;;;;;4021745;29;20114;-79
2024/03/05 15:52:37;;;;;;;7.07;3.47;;;9.30;96.40;;;;;;4021938;29;20110;-78
2024/03/05 15:54:40;;;;;;;6.28;3.63;;;9.30;96.60;;;;;;4030914;29;20114;-77
2024/03/05 15:56:56;;;;;;;6.28;3.60;;;9.30;96.90;;;;;;4025394;29;20057;-78
2024/03/05 16:01:18;;;;;;;5.57;3.40;;;9.30;97.10;;;;;;4021786;29;20597;-78
2024/03/05 16:03:21;;;;;;;5.82;3.80;;;9.30;96.90;;;;;;4021413;29;20066;-79
2024/03/05 16:05:23;;;;;;;8.10;4.50;;;9.30;96.80;;;;;;4021613;29;20456;-79
2024/03/05 16:07:26;;;;;;;6.65;4.18;;;9.30;97.00;;;;;;4021690;29;20053;-79
2024/03/05 16:09:28;;;;;;;6.93;3.67;;;9.30;96.90;;;;;;4021721;29;20057;-78
2024/03/05 16:11:31;;;;;;;6.57;4.40;;;9.30;96.90;;;;;;4021619;29;20065;-80
2024/03/05 16:13:32;;;;;;;6.50;3.83;;;9.30;96.70;;;;;;4021401;29;20562;-80
2024/03/05 16:15:35;;;;;;;7.80;3.63;;;9.20;96.70;;;;;;4021650;29;20060;-80
2024/03/05 16:17:37;;;;;;;6.20;3.97;;;9.20;96.80;;;;;;4021635;29;20088;-81
2024/03/05 16:19:39;;;;;;;5.82;3.47;;;9.30;96.90;;;;;;4021752;29;20119;-80
2024/03/05 16:21:41;;;;;;;6.80;3.95;;;9.20;96.90;;;;;;4021573;29;20124;-79
2024/03/05 16:23:45;;;;;;;6.60;4.18;;;9.20;96.80;;;;;;4021568;29;20121;-79
2024/03/05 16:25:47;;;;;;;7.03;4.40;;;9.20;97.00;;;;;;4021219;29;20073;-78
2024/03/05 16:27:48;;;;;;;8.05;4.32;;;9.20;97.20;;;;;;4021472;29;20536;-80
2024/03/05 16:29:52;;;;;;;5.90;4.05;;;9.20;97.30;;;;;;4021380;29;20087;-80
2024/03/05 16:31:54;;;;;;;7.05;4.43;;;9.20;97.30;;;;;;4021492;29;20053;-78
2024/03/05 16:33:59;;;;;;;7.55;4.13;;;9.10;97.40;;;;;;4025217;29;20076;-77
2024/03/05 16:36:02;;;;;;;7.68;4.47;;;9.10;97.40;;;;;;4031600;29;20117;-81
2024/03/05 16:38:05;;;;;;;7.18;4.20;;;9.10;97.50;;;;;;4029720;29;20061;-80
2024/03/05 16:40:14;;;;;;;7.07;4.53;;;9.10;97.50;;;;;;4031304;29;20462;-79
2024/03/05 16:42:16;;;;;;;12.63;7.57;;;9.10;97.40;;;;;;4021701;29;20096;-80
2024/03/05 16:44:18;;;;;;;11.15;6.20;;;9.10;97.50;;;;;;4021384;29;20513;-79
2024/03/05 16:46:21;;;;;;;13.32;7.95;;;9.00;97.60;;;;;;4029995;29;20180;-80
2024/03/05 16:48:23;;;;;;;21.13;11.90;;;9.00;97.90;;;;;;4026281;29;20049;-79
2024/03/05 16:50:26;;;;;;;17.70;10.13;;;9.00;97.80;;;;;;4025250;29;20079;-80
2024/03/05 16:52:27;;;;;;;8.40;4.55;;;9.00;97.70;;;;;;4024464;29;20056;-77